Time;durP1;ratioP1;P1;durP2;ratioP2;P2;SDS_P1;SDS_P2;PMS_P1;PMS_P2;Temp;Humidity;BMP_temperature;BMP_pressure;BME280_temperature;BME280_humidity;BME280_pressure;Samples;Min_cycle;Max_cycle;Signal;HPM_P1;HPM_P2
2022/07/14 00:02:08;;;;;;;5.20;2.73;;;;;;;20.87;63.72;98442.53;5057086;28;20236;-77
2022/07/14 00:04:36;;;;;;;3.67;2.40;;;;;;;20.83;62.87;98435.78;5057151;28;20220;-76
2022/07/14 00:07:03;;;;;;;2.70;2.50;;;;;;;20.80;64.56;98430.75;5057500;28;20688;-77
2022/07/14 00:09:29;;;;;;;3.00;2.50;;;;;;;20.72;65.51;98434.25;5060564;28;20425;-76
2022/07/14 00:11:56;;;;;;;2.90;2.50;;;;;;;20.67;66.19;98430.38;5057616;28;20562;-77
2022/07/14 00:14:22;;;;;;;3.43;2.50;;;;;;;20.58;68.11;98426.81;5057120;28;20208;-77
2022/07/14 00:16:49;;;;;;;3.10;2.30;;;;;;;20.49;69.98;98422.38;5056900;28;20583;-76
2022/07/14 00:19:15;;;;;;;6.23;2.83;;;;;;;20.38;71.35;98425.38;5057968;28;20298;-76
2022/07/14 00:21:44;;;;;;;3.33;2.63;;;;;;;20.37;68.33;98429.03;5056776;28;20720;-76
2022/07/14 00:24:11;;;;;;;3.60;2.60;;;;;;;20.48;64.15;98426.09;5056938;28;20247;-76
2022/07/14 00:26:39;;;;;;;5.50;2.80;;;;;;;20.52;64.62;98438.19;5056547;28;20223;-77
2022/07/14 00:29:06;;;;;;;4.37;2.90;;;;;;;20.31;66.64;98429.69;5059508;28;20216;-76
2022/07/14 00:31:32;;;;;;;3.47;2.80;;;;;;;20.07;68.48;98432.25;5056666;28;20222;-76
2022/07/14 00:33:59;;;;;;;6.60;2.93;;;;;;;19.88;68.77;98424.34;5056826;28;20212;-76
2022/07/14 00:36:27;;;;;;;3.57;2.73;;;;;;;19.73;71.04;98428.59;5056618;28;20219;-76
2022/07/14 00:38:55;;;;;;;2.87;2.43;;;;;;;19.65;71.93;98427.69;5058711;28;20312;-77
2022/07/14 00:41:22;;;;;;;4.03;2.60;;;;;;;19.55;73.15;98435.81;5056990;28;20232;-77
2022/07/14 00:43:48;;;;;;;2.93;2.47;;;;;;;19.47;73.71;98427.72;5055000;28;20230;-76
2022/07/14 00:46:15;;;;;;;5.10;3.00;;;;;;;19.44;74.30;98424.50;5056282;28;20212;-76
2022/07/14 00:48:42;;;;;;;2.90;2.20;;;;;;;19.36;74.48;98422.56;5058472;28;20216;-77
2022/07/14 00:51:08;;;;;;;2.90;2.50;;;;;;;19.32;74.72;98417.69;5057097;28;20306;-76
2022/07/14 00:53:35;;;;;;;3.03;2.40;;;;;;;19.30;75.09;98416.97;5056531;28;20576;-77
2022/07/14 00:56:03;;;;;;;3.37;2.53;;;;;;;19.33;74.39;98414.00;5056238;28;20222;-77
2022/07/14 00:58:29;;;;;;;2.47;2.20;;;;;;;19.34;74.91;98416.53;5058093;28;20215;-76
2022/07/14 01:00:56;;;;;;;2.50;2.30;;;;;;;19.34;74.95;98416.53;5055577;28;20679;-77
2022/07/14 01:03:22;;;;;;;3.13;2.30;;;;;;;19.31;75.29;98411.47;5056083;28;20601;-77
2022/07/14 01:05:49;;;;;;;3.13;2.47;;;;;;;19.30;75.64;98414.28;5055849;28;20744;-78
2022/07/14 01:08:15;;;;;;;3.23;2.60;;;;;;;19.27;75.63;98410.06;5057402;28;20219;-76
2022/07/14 01:10:42;;;;;;;4.03;2.50;;;;;;;19.19;76.09;98404.63;5055949;28;20215;-76
2022/07/14 01:13:10;;;;;;;2.47;2.27;;;;;;;19.16;76.19;98412.13;5056135;28;20589;-76
2022/07/14 01:15:37;;;;;;;2.77;2.17;;;;;;;19.15;75.05;98405.91;5056096;28;20216;-76
2022/07/14 01:18:04;;;;;;;3.73;2.33;;;;;;;19.16;75.25;98407.63;5056872;28;20212;-76
2022/07/14 01:20:30;;;;;;;2.53;2.17;;;;;;;19.17;73.80;98414.66;5057864;28;20266;-76
2022/07/14 01:22:58;;;;;;;3.70;2.40;;;;;;;19.20;72.55;98416.19;5055875;28;20250;-77
2022/07/14 01:25:25;;;;;;;3.33;2.27;;;;;;;19.22;72.07;98414.22;5056186;28;20310;-76
2022/07/14 01:27:52;;;;;;;3.27;2.10;;;;;;;19.22;71.63;98412.41;5057057;28;20215;-77
2022/07/14 01:30:18;;;;;;;3.10;2.20;;;;;;;19.25;71.21;98411.22;5058532;28;20642;-77
2022/07/14 01:32:45;;;;;;;2.50;2.20;;;;;;;19.22;71.49;98417.75;5056049;28;20218;-76
2022/07/14 01:35:11;;;;;;;3.40;2.47;;;;;;;19.27;71.66;98415.44;5055822;28;20212;-76
2022/07/14 01:37:38;;;;;;;3.77;2.77;;;;;;;19.22;72.47;98419.59;5054530;28;20210;-77
2022/07/14 01:40:08;;;;;;;3.70;2.50;;;;;;;19.19;72.96;98418.00;5058455;28;20340;-76
2022/07/14 01:42:35;;;;;;;5.30;2.73;;;;;;;19.12;73.26;98400.88;5055897;28;20238;-77
2022/07/14 01:45:01;;;;;;;3.63;2.90;;;;;;;19.08;73.69;98404.84;5056061;28;20217;-77
2022/07/14 01:47:28;;;;;;;3.90;2.90;;;;;;;19.03;73.80;98401.75;5055804;28;20303;-77
2022/07/14 01:49:54;;;;;;;5.20;3.23;;;;;;;19.01;74.04;98402.94;5058334;28;20672;-76
2022/07/14 01:52:21;;;;;;;4.13;2.97;;;;;;;18.99;74.01;98404.91;5055492;28;20232;-76
2022/07/14 01:54:47;;;;;;;2.63;2.43;;;;;;;18.99;74.22;98411.13;5056013;28;20318;-77
2022/07/14 01:57:15;;;;;;;3.57;2.70;;;;;;;18.93;74.40;98410.88;5055867;28;20220;-76
2022/07/14 01:59:42;;;;;;;3.20;2.60;;;;;;;18.89;75.00;98398.78;5056529;28;20285;-78
2022/07/14 02:02:08;;;;;;;3.10;2.67;;;;;;;18.82;75.63;98393.19;5057754;28;20645;-77
2022/07/14 02:04:35;;;;;;;3.23;2.60;;;;;;;18.79;76.12;98404.22;5059190;28;20230;-77
2022/07/14 02:07:01;;;;;;;4.83;2.70;;;;;;;18.72;76.29;98395.06;5059290;28;20220;-77
2022/07/14 02:12:14;;;;;;;3.03;2.73;;;;;;;18.41;80.04;98404.41;5059006;28;20692;-76
2022/07/14 02:14:42;;;;;;;4.27;3.17;;;;;;;18.25;81.67;98398.81;5059292;28;20212;-76
2022/07/14 02:17:09;;;;;;;3.37;2.67;;;;;;;18.11;82.66;98391.25;5061010;28;20561;-76
2022/07/14 02:19:36;;;;;;;3.40;2.67;;;;;;;18.01;83.61;98398.50;5060704;28;20220;-76
2022/07/14 02:22:04;;;;;;;4.07;2.80;;;;;;;17.90;84.33;98398.66;5059416;28;20240;-78
2022/07/14 02:24:31;;;;;;;2.50;2.30;;;;;;;17.80;84.96;98397.81;5059003;28;20247;-76
2022/07/14 02:26:57;;;;;;;4.33;2.77;;;;;;;17.76;85.37;98391.09;5060533;28;20216;-76
2022/07/14 02:29:24;;;;;;;4.13;2.97;;;;;;;17.69;86.27;98386.47;5058942;28;20222;-78
2022/07/14 02:31:52;;;;;;;3.67;2.57;;;;;;;17.58;87.22;98395.50;5058961;28;20222;-78
2022/07/14 02:34:19;;;;;;;3.13;2.83;;;;;;;17.57;86.16;98393.81;5058678;28;20208;-75
2022/07/14 02:36:47;;;;;;;3.93;2.70;;;;;;;17.53;85.62;98387.06;5059821;28;20211;-78
2022/07/14 02:39:14;;;;;;;3.73;2.60;;;;;;;17.37;87.24;98384.09;5060444;28;20254;-78
2022/07/14 02:41:41;;;;;;;4.20;2.97;;;;;;;17.18;88.89;98381.41;5058535;28;20212;-78
2022/07/14 02:44:08;;;;;;;4.30;2.97;;;;;;;17.05;90.00;98380.84;5058496;28;20656;-78
2022/07/14 02:46:35;;;;;;;4.53;2.67;;;;;;;17.02;90.45;98389.13;5060343;28;20227;-78
2022/07/14 02:49:04;;;;;;;2.53;2.33;;;;;;;17.00;90.72;98384.94;5060453;28;20216;-78
2022/07/14 02:51:30;;;;;;;3.10;2.20;;;;;;;17.01;90.84;98387.44;5058441;28;20218;-78
2022/07/14 02:53:57;;;;;;;3.27;2.57;;;;;;;17.02;90.56;98383.78;5056751;28;20214;-78
2022/07/14 02:56:23;;;;;;;4.03;2.60;;;;;;;17.00;90.60;98385.78;5059544;28;20304;-78
2022/07/14 02:58:50;;;;;;;2.77;2.33;;;;;;;16.98;90.91;98381.53;5060423;28;20302;-78
2022/07/14 03:01:17;;;;;;;3.37;2.63;;;;;;;16.96;90.59;98376.34;5058611;28;20212;-78
2022/07/14 03:03:44;;;;;;;2.50;2.30;;;;;;;16.91;91.04;98370.59;5058440;28;20331;-76
2022/07/14 03:06:13;;;;;;;2.80;2.27;;;;;;;16.81;91.58;98380.41;5059085;28;20212;-76
2022/07/14 03:08:40;;;;;;;3.07;2.43;;;;;;;16.74;92.78;98378.44;5059797;28;20215;-76
2022/07/14 03:11:07;;;;;;;3.83;2.30;;;;;;;16.67;93.63;98383.50;5058369;28;20216;-76
2022/07/14 03:13:35;;;;;;;3.33;2.47;;;;;;;16.62;94.13;98375.03;5058362;28;20219;-76
2022/07/14 03:16:02;;;;;;;2.67;2.47;;;;;;;16.59;94.55;98367.31;5058493;28;20216;-76
2022/07/14 03:18:29;;;;;;;3.80;2.63;;;;;;;16.57;94.94;98369.28;5059905;28;20687;-76
2022/07/14 03:20:56;;;;;;;3.20;2.90;;;;;;;16.56;95.51;98367.59;5056070;28;20711;-77
2022/07/14 03:23:24;;;;;;;3.03;2.73;;;;;;;16.54;96.02;98372.22;5057770;28;20709;-77
2022/07/14 03:25:50;;;;;;;3.20;2.90;;;;;;;16.57;96.51;98366.59;5058313;28;20216;-76
2022/07/14 03:28:17;;;;;;;4.27;3.00;;;;;;;16.60;96.67;98365.50;5060306;28;20228;-76
2022/07/14 03:30:43;;;;;;;5.43;3.07;;;;;;;16.56;97.14;98358.72;5057879;28;20220;-76
2022/07/14 03:33:10;;;;;;;3.73;3.10;;;;;;;16.53;97.41;98365.19;5057916;28;20654;-77
2022/07/14 03:35:40;;;;;;;5.63;3.10;;;;;;;16.52;97.75;98370.69;5057421;28;20219;-76
2022/07/14 03:38:07;;;;;;;4.37;3.40;;;;;;;16.49;98.13;98368.25;5060218;28;20233;-76
2022/07/14 03:40:35;;;;;;;3.87;3.17;;;;;;;16.45;98.82;98373.03;5063108;28;20270;-76
2022/07/14 03:43:02;;;;;;;3.30;2.93;;;;;;;16.41;99.27;98376.13;5061828;28;20240;-76
2022/07/14 03:45:28;;;;;;;3.60;3.17;;;;;;;16.47;99.26;98371.06;5057896;28;20234;-77
2022/07/14 03:47:55;;;;;;;5.67;3.50;;;;;;;16.54;98.98;98382.91;5058590;28;20574;-76
2022/07/14 03:50:22;;;;;;;4.03;3.03;;;;;;;16.63;98.40;98381.25;5057290;28;20693;-77
2022/07/14 03:52:48;;;;;;;5.10;3.20;;;;;;;16.74;97.91;98379.28;5057548;28;20220;-76
2022/07/14 03:55:15;;;;;;;4.27;3.50;;;;;;;16.87;97.14;98379.00;5057310;28;20212;-77
2022/07/14 03:57:42;;;;;;;4.00;2.93;;;;;;;17.02;96.09;98378.44;5060601;28;20917;-77
2022/07/14 04:00:10;;;;;;;3.73;2.83;;;;;;;17.14;95.17;98380.00;5062144;28;20268;-76
2022/07/14 04:02:37;;;;;;;3.57;3.07;;;;;;;17.22;94.89;98380.16;5062137;28;20697;-76
2022/07/14 04:05:04;;;;;;;4.13;3.20;;;;;;;17.32;93.98;98385.50;5057423;28;20212;-76
2022/07/14 04:07:30;;;;;;;4.47;2.90;;;;;;;17.34;94.09;98387.03;5060209;28;20227;-77
2022/07/14 04:09:57;;;;;;;4.80;3.53;;;;;;;17.33;94.71;98379.16;5056826;28;20221;-77
2022/07/14 04:12:24;;;;;;;4.37;3.20;;;;;;;17.34;94.60;98380.84;5055411;28;20228;-78
2022/07/14 04:14:52;;;;;;;3.23;2.93;;;;;;;17.32;94.64;98390.84;5056922;28;20247;-77
2022/07/14 04:17:19;;;;;;;4.03;2.90;;;;;;;17.30;95.05;98392.78;5060074;28;20219;-79
2022/07/14 04:19:45;;;;;;;4.53;2.97;;;;;;;17.29;95.74;98386.63;5056881;28;20216;-79
2022/07/14 04:22:12;;;;;;;3.77;3.10;;;;;;;17.25;96.61;98390.56;5055735;28;20239;-77
2022/07/14 04:24:38;;;;;;;3.97;3.10;;;;;;;17.24;96.83;98394.22;5056929;28;20673;-78
2022/07/14 04:27:05;;;;;;;3.17;2.70;;;;;;;17.22;97.15;98390.84;5059728;28;20217;-77
2022/07/14 04:29:32;;;;;;;4.30;3.03;;;;;;;17.19;97.44;98395.63;5056857;28;20307;-77
2022/07/14 04:32:00;;;;;;;3.53;3.23;;;;;;;17.16;97.91;98383.41;5056728;28;20216;-77
2022/07/14 04:34:27;;;;;;;5.67;3.33;;;;;;;17.15;98.10;98389.72;5056615;28;20624;-77
2022/07/14 04:36:54;;;;;;;4.50;3.40;;;;;;;17.21;97.80;98393.66;5058961;28;20219;-77
2022/07/14 04:39:21;;;;;;;4.13;3.20;;;;;;;17.27;97.50;98395.75;5055160;28;20207;-79
2022/07/14 04:41:47;;;;;;;5.13;3.43;;;;;;;17.36;96.56;98393.09;5056684;28;20212;-79
2022/07/14 04:44:14;;;;;;;3.10;2.80;;;;;;;17.42;96.66;98391.69;5056307;28;20246;-77
2022/07/14 04:46:40;;;;;;;3.53;2.70;;;;;;;17.47;96.80;98390.31;5058537;28;20216;-78
2022/07/14 04:52:04;;;;;;;3.83;3.17;;;;;;;17.61;95.24;98397.88;5056269;28;20211;-79
2022/07/14 04:54:32;;;;;;;4.03;2.93;;;;;;;17.69;94.87;98399.81;5058247;28;20560;-79
2022/07/14 04:56:59;;;;;;;3.30;3.00;;;;;;;17.78;94.50;98397.13;5057133;28;20266;-79
2022/07/14 04:59:26;;;;;;;3.70;3.00;;;;;;;17.96;93.57;98395.41;5055999;28;20691;-77
2022/07/14 05:01:53;;;;;;;4.20;2.77;;;;;;;18.13;92.98;98396.47;5056440;28;20303;-80
2022/07/14 05:04:21;;;;;;;4.87;3.40;;;;;;;18.33;91.59;98401.63;5056360;28;20781;-77
2022/07/14 05:06:49;;;;;;;3.20;2.80;;;;;;;18.53;90.31;98403.22;5059879;28;20752;-78
2022/07/14 05:09:16;;;;;;;3.17;2.83;;;;;;;18.76;88.98;98404.50;5062917;28;20216;-77
2022/07/14 05:11:43;;;;;;;3.93;2.97;;;;;;;19.09;86.92;98401.16;5056228;28;20211;-77
2022/07/14 05:14:10;;;;;;;3.83;2.70;;;;;;;19.83;82.96;98397.16;5057904;28;20219;-77
2022/07/14 05:16:36;;;;;;;3.53;2.83;;;;;;;20.94;77.59;98396.09;5056824;28;20688;-77
2022/07/14 05:19:03;;;;;;;4.30;2.80;;;;;;;22.09;71.83;98400.34;5055864;28;20212;-77
2022/07/14 05:21:31;;;;;;;3.20;2.60;;;;;;;23.12;67.22;98401.81;5055626;28;20616;-79
2022/07/14 05:23:58;;;;;;;3.50;2.70;;;;;;;24.02;62.23;98391.03;5057384;28;20243;-78
2022/07/14 05:26:25;;;;;;;5.20;2.80;;;;;;;24.83;59.26;98389.13;5056924;28;20705;-81
2022/07/14 05:28:51;;;;;;;3.13;2.70;;;;;;;25.28;56.44;98379.88;5056015;28;20212;-81
2022/07/14 05:31:18;;;;;;;4.50;3.03;;;;;;;24.85;58.36;98386.19;5054225;28;20212;-81
2022/07/14 05:33:44;;;;;;;4.23;2.70;;;;;;;24.48;59.93;98387.16;5057108;28;20574;-81
2022/07/14 05:36:11;;;;;;;3.43;2.93;;;;;;;25.13;56.81;98388.03;5057656;28;20668;-81
2022/07/14 05:38:39;;;;;;;2.97;2.60;;;;;;;25.55;54.80;98381.84;5057805;28;20547;-81
2022/07/14 05:41:06;;;;;;;3.20;2.33;;;;;;;25.66;55.03;98375.91;5058901;28;20215;-82
2022/07/14 05:43:32;;;;;;;2.73;2.50;;;;;;;25.97;53.15;98379.94;5059054;28;20246;-83
2022/07/14 05:46:03;;;;;;;4.17;2.97;;;;;;;26.62;50.77;98376.84;5060469;28;20211;-82
2022/07/14 05:48:30;;;;;;;3.00;2.60;;;;;;;27.35;49.42;98375.06;5058514;28;20207;-82
2022/07/14 05:51:04;;;;;;;3.63;2.50;;;;;;;27.96;47.39;98368.47;5058385;28;20766;-83
2022/07/14 05:53:31;;;;;;;3.30;2.27;;;;;;;28.42;46.53;98369.31;5060255;28;20281;-83
2022/07/14 05:55:59;;;;;;;2.70;2.20;;;;;;;28.76;45.56;98371.69;5059165;28;20223;-82
2022/07/14 05:58:26;;;;;;;3.20;2.80;;;;;;;29.07;44.24;98371.81;5056897;28;20215;-83
2022/07/14 06:00:52;;;;;;;3.15;2.47;;;;;;;29.53;43.29;98375.16;5058077;28;20302;-82
2022/07/14 06:03:19;;;;;;;3.22;2.35;;;;;;;29.96;42.52;98367.91;5059653;28;20609;-83
2022/07/14 06:05:46;;;;;;;4.00;2.83;;;;;;;30.34;41.47;98379.53;5059019;28;20223;-83
2022/07/14 06:08:13;;;;;;;3.88;2.67;;;;;;;30.49;41.21;98371.81;5058601;28;20219;-83
2022/07/14 06:10:40;;;;;;;4.63;2.78;;;;;;;30.63;39.94;98384.28;5058679;28;20234;-83
2022/07/14 06:13:08;;;;;;;4.70;3.03;;;;;;;30.85;39.89;98377.31;5059509;28;20678;-83
2022/07/14 06:15:35;;;;;;;3.92;2.60;;;;;;;30.91;39.70;98373.66;5059752;28;20691;-83
2022/07/14 06:18:01;;;;;;;4.05;2.70;;;;;;;30.78;39.59;98376.56;5058224;28;20219;-83
2022/07/14 06:20:28;;;;;;;5.13;2.88;;;;;;;30.23;40.25;98366.63;5057759;28;20216;-84
2022/07/14 06:22:55;;;;;;;4.63;3.00;;;;;;;29.65;40.92;98366.03;5057182;28;20216;-84
2022/07/14 06:25:22;;;;;;;3.83;2.72;;;;;;;29.62;41.37;98373.81;5059697;28;20212;-84
2022/07/14 06:27:48;;;;;;;3.55;2.60;;;;;;;30.48;39.87;98371.00;5057949;28;20214;-84
2022/07/14 06:30:16;;;;;;;4.78;2.70;;;;;;;31.17;38.77;98370.63;5057450;28;20696;-84
2022/07/14 06:32:43;;;;;;;6.45;3.05;;;;;;;31.25;37.58;98357.53;5058063;28;20222;-83
2022/07/14 06:35:11;;;;;;;4.72;2.67;;;;;;;30.63;38.82;98365.19;5059334;28;20702;-84
2022/07/14 06:37:38;;;;;;;2.95;2.28;;;;;;;30.83;37.89;98354.88;5057020;28;20689;-83
2022/07/14 06:40:07;;;;;;;3.97;2.60;;;;;;;30.99;37.72;98362.47;5057518;28;20208;-83
2022/07/14 06:42:34;;;;;;;5.60;3.30;;;;;;;31.23;38.36;98358.81;5057882;28;20307;-83
2022/07/14 06:45:01;;;;;;;6.25;2.70;;;;;;;31.82;37.24;98356.03;5058629;28;20734;-83
2022/07/14 06:47:30;;;;;;;3.97;2.72;;;;;;;32.10;36.68;98362.50;5057394;28;20212;-83
2022/07/14 06:49:58;;;;;;;4.97;2.92;;;;;;;31.92;37.08;98354.41;5055568;28;20377;-83
2022/07/14 06:52:25;;;;;;;5.82;3.30;;;;;;;31.34;37.58;98355.28;5058271;28;20307;-84
2022/07/14 06:54:51;;;;;;;3.85;2.70;;;;;;;30.83;38.23;98357.63;5059167;28;20215;-83
2022/07/14 06:57:18;;;;;;;4.47;2.70;;;;;;;30.20;38.84;98356.19;5057369;28;20216;-83
2022/07/14 06:59:45;;;;;;;6.82;2.72;;;;;;;30.04;40.16;98351.25;5057572;28;20262;-82
2022/07/14 07:02:12;;;;;;;6.93;3.17;;;;;;;30.58;39.84;98354.09;5057796;28;20216;-82
2022/07/14 07:04:40;;;;;;;4.82;3.10;;;;;;;30.94;39.03;98345.94;5059315;28;20241;-82
2022/07/14 07:07:06;;;;;;;5.00;3.35;;;;;;;31.05;38.58;98345.97;5056812;28;20677;-82
2022/07/14 07:09:32;;;;;;;5.22;3.08;;;;;;;30.83;39.01;98349.44;5057089;28;20315;-83
2022/07/14 07:11:59;;;;;;;3.28;2.92;;;;;;;30.26;40.40;98347.09;5057397;28;20222;-83
2022/07/14 07:14:25;;;;;;;4.47;2.65;;;;;;;29.45;42.14;98345.41;5059400;28;20215;-83
2022/07/14 07:16:52;;;;;;;2.92;2.63;;;;;;;28.82;43.01;98346.34;5055554;28;20208;-82
2022/07/14 07:19:18;;;;;;;4.18;2.90;;;;;;;28.46;43.77;98338.75;5056592;28;20208;-82
2022/07/14 07:21:46;;;;;;;2.95;2.33;;;;;;;28.47;43.75;98329.53;5069645;28;20241;-82
2022/07/14 07:24:13;;;;;;;4.15;2.42;;;;;;;28.67;43.70;98330.28;5059676;28;20337;-82
2022/07/14 07:26:42;;;;;;;4.22;2.33;;;;;;;28.75;43.50;98323.78;5057455;28;20220;-82
2022/07/14 07:29:09;;;;;;;3.25;2.00;;;;;;;28.65;43.73;98329.69;5057058;28;20222;-84
2022/07/14 07:31:37;;;;;;;4.45;2.22;;;;;;;28.47;43.61;98325.97;5056794;28;20294;-82
2022/07/14 07:34:04;;;;;;;2.72;2.10;;;;;;;28.25;44.08;98329.97;5053744;28;20622;-82
2022/07/14 07:36:31;;;;;;;2.70;2.10;;;;;;;28.12;44.34;98328.13;5055386;28;20208;-83
2022/07/14 07:38:59;;;;;;;3.67;2.20;;;;;;;28.03;45.06;98325.81;5054358;28;20220;-82
2022/07/14 07:41:26;;;;;;;2.70;1.92;;;;;;;27.91;45.19;98328.38;5055714;28;20307;-80
2022/07/14 07:43:53;;;;;;;2.67;2.20;;;;;;;27.81;45.25;98317.06;5051654;28;20265;-80
2022/07/14 07:46:20;;;;;;;3.95;2.40;;;;;;;27.76;45.50;98318.72;5056181;28;20307;-80
2022/07/14 07:48:46;;;;;;;3.90;2.40;;;;;;;27.76;46.03;98310.56;5056477;28;20307;-80
2022/07/14 07:51:13;;;;;;;2.55;2.10;;;;;;;27.85;46.87;98312.06;5055184;28;20216;-81
2022/07/14 07:53:41;;;;;;;4.72;2.03;;;;;;;28.04;46.89;98317.47;5058560;28;20215;-81
2022/07/14 07:56:09;;;;;;;3.55;2.10;;;;;;;28.33;45.54;98310.72;5055354;28;20303;-80
2022/07/14 07:58:36;;;;;;;3.92;2.20;;;;;;;28.64;46.24;98310.84;5055765;28;20280;-81
2022/07/14 08:01:03;;;;;;;2.63;1.80;;;;;;;28.87;44.55;98303.00;5055959;28;20575;-81
2022/07/14 08:03:30;;;;;;;3.58;2.00;;;;;;;29.02;44.36;98300.84;5058594;28;20211;-80
2022/07/14 08:05:56;;;;;;;3.25;1.80;;;;;;;29.08;44.61;98297.25;5055726;28;20212;-81
2022/07/14 08:08:23;;;;;;;3.17;2.05;;;;;;;29.07;44.69;98292.88;5055082;28;20216;-82
2022/07/14 08:10:50;;;;;;;3.28;2.00;;;;;;;29.18;43.98;98294.91;5055871;28;20246;-84
2022/07/14 08:13:17;;;;;;;3.45;2.13;;;;;;;29.24;43.80;98286.72;5058406;28;20222;-81
2022/07/14 08:15:44;;;;;;;3.95;1.88;;;;;;;29.25;44.02;98290.25;5042785;28;20235;-81
2022/07/14 08:18:11;;;;;;;4.78;2.10;;;;;;;29.26;43.79;98281.88;5055498;28;20218;-81
2022/07/14 08:20:37;;;;;;;6.07;2.33;;;;;;;29.31;43.93;98278.47;5055535;28;20286;-81
2022/07/14 08:23:04;;;;;;;2.72;2.17;;;;;;;29.27;44.45;98269.06;5057885;28;20212;-81
2022/07/14 08:25:31;;;;;;;4.45;2.20;;;;;;;29.19;43.02;98280.22;5055661;28;20244;-81
2022/07/14 08:27:57;;;;;;;3.03;1.80;;;;;;;29.19;43.91;98275.63;5055474;28;20236;-81
2022/07/14 08:30:25;;;;;;;3.08;1.80;;;;;;;29.23;43.48;98267.84;5053996;28;20222;-81
2022/07/14 08:32:52;;;;;;;4.75;2.22;;;;;;;29.28;44.09;98259.88;5057696;28;20230;-81
2022/07/14 08:35:21;;;;;;;4.63;2.05;;;;;;;29.25;44.28;98257.56;5057381;28;20211;-81
2022/07/14 08:37:48;;;;;;;2.80;2.05;;;;;;;29.25;43.47;98260.28;5055531;28;20223;-81
2022/07/14 08:40:17;;;;;;;3.58;1.70;;;;;;;29.29;43.59;98247.91;5055268;28;20558;-82
2022/07/14 08:42:45;;;;;;;3.80;1.83;;;;;;;29.28;44.51;98243.53;5057702;28;20212;-82
2022/07/14 08:45:14;;;;;;;3.35;2.30;;;;;;;29.33;45.57;98251.84;5055256;28;20240;-82
2022/07/14 08:47:43;;;;;;;2.75;1.95;;;;;;;29.37;43.46;98244.91;5055099;28;20306;-81
2022/07/14 08:50:11;;;;;;;4.78;1.80;;;;;;;29.50;44.20;98240.19;5055247;28;20269;-81
2022/07/14 08:52:38;;;;;;;3.42;2.28;;;;;;;29.59;43.57;98235.34;5058181;28;20225;-81
2022/07/14 08:55:07;;;;;;;2.22;1.67;;;;;;;29.63;39.87;98233.81;5041942;28;20215;-81
2022/07/14 08:57:35;;;;;;;4.03;1.80;;;;;;;29.81;41.15;98236.56;5054938;28;20266;-80
2022/07/14 09:00:02;;;;;;;3.42;2.10;;;;;;;29.93;41.77;98218.41;5054673;28;20346;-81
2022/07/14 09:02:29;;;;;;;2.60;2.13;;;;;;;30.06;41.86;98226.44;5056377;28;20219;-81
2022/07/14 09:04:57;;;;;;;2.30;1.98;;;;;;;30.27;40.17;98220.59;5054917;28;20235;-80
2022/07/14 09:07:31;;;;;;;3.58;1.80;;;;;;;30.51;39.23;98216.94;5054699;28;20319;-80
2022/07/14 09:10:04;;;;;;;2.92;1.90;;;;;;;30.67;38.17;98217.16;5054672;28;20207;-80
2022/07/14 09:12:31;;;;;;;3.35;2.22;;;;;;;30.61;37.45;98211.75;5056739;28;20298;-81
2022/07/14 09:17:50;;;;;;;2.28;1.50;;;;;;;30.46;32.78;98219.50;5054463;28;20731;-80
2022/07/14 09:20:18;;;;;;;1.45;1.35;;;;;;;30.57;31.34;98210.56;5051718;28;20222;-79
2022/07/14 09:22:45;;;;;;;2.05;1.40;;;;;;;30.84;28.73;98206.41;5054365;28;20212;-80
2022/07/14 09:25:15;;;;;;;3.03;1.40;;;;;;;31.16;30.24;98202.34;5054389;28;20681;-80
2022/07/14 09:27:42;;;;;;;2.47;1.50;;;;;;;31.43;28.43;98206.38;5054743;28;20256;-80
2022/07/14 09:30:11;;;;;;;2.58;1.50;;;;;;;31.51;28.51;98200.53;5056240;28;20614;-79
2022/07/14 09:32:52;;;;;;;1.27;1.17;;;;;;;31.58;28.97;98193.06;5054308;28;20703;-79
2022/07/14 09:35:21;;;;;;;2.17;1.30;;;;;;;31.65;28.13;98188.31;5054386;28;20208;-79
2022/07/14 09:37:49;;;;;;;1.42;1.23;;;;;;;31.66;27.68;98188.06;5056785;28;20681;-79
2022/07/14 09:40:23;;;;;;;1.70;1.30;;;;;;;31.73;27.88;98185.25;5054711;28;20214;-79
2022/07/14 09:42:53;;;;;;;4.55;1.50;;;;;;;31.63;26.71;98179.50;5054560;28;20273;-79
2022/07/14 09:45:23;;;;;;;1.77;1.60;;;;;;;31.71;27.14;98192.81;5054264;28;20329;-79
2022/07/14 09:48:02;;;;;;;2.22;1.35;;;;;;;31.59;26.98;98183.81;5051629;28;20217;-80
2022/07/14 09:50:39;;;;;;;1.55;1.40;;;;;;;31.17;27.11;98183.00;5054398;28;20295;-80
2022/07/14 09:53:17;;;;;;;2.35;1.33;;;;;;;31.07;28.01;98190.09;5054230;28;20223;-80
2022/07/14 09:55:51;;;;;;;2.40;1.20;;;;;;;30.98;28.55;98181.41;5050445;28;20301;-79
2022/07/14 09:58:19;;;;;;;1.63;1.30;;;;;;;31.05;29.06;98181.34;5054364;28;20211;-79
2022/07/14 10:00:55;;;;;;;2.53;1.40;;;;;;;31.32;27.66;98177.13;5054489;28;20208;-76
2022/07/14 10:03:22;;;;;;;2.55;1.35;;;;;;;31.35;27.67;98171.19;5057055;28;20219;-77
2022/07/14 10:05:52;;;;;;;5.70;1.65;;;;;;;31.48;28.42;98176.44;5054218;28;20242;-78
2022/07/14 10:08:21;;;;;;;2.75;1.45;;;;;;;31.62;27.34;98170.50;5054006;28;20215;-78
2022/07/14 10:10:48;;;;;;;2.58;1.35;;;;;;;31.62;27.20;98161.44;5054837;28;20208;-79
2022/07/14 10:13:16;;;;;;;1.60;1.35;;;;;;;31.58;27.14;98168.47;5057533;28;20551;-79
2022/07/14 10:15:43;;;;;;;1.40;1.30;;;;;;;31.76;26.87;98168.38;5041719;28;20585;-78
2022/07/14 10:18:10;;;;;;;2.53;1.40;;;;;;;31.80;28.21;98159.47;5054799;28;20238;-79
2022/07/14 10:20:39;;;;;;;2.90;1.40;;;;;;;31.81;27.44;98166.59;5058042;28;20247;-79
2022/07/14 10:23:07;;;;;;;1.52;1.42;;;;;;;31.87;27.34;98162.06;5059578;28;20212;-78
2022/07/14 10:25:34;;;;;;;2.75;1.48;;;;;;;31.84;27.18;98154.34;5057775;28;20597;-78
2022/07/14 10:28:01;;;;;;;2.88;1.60;;;;;;;31.82;27.08;98149.13;5057985;28;20212;-78
2022/07/14 10:30:36;;;;;;;1.60;1.50;;;;;;;31.93;28.01;98136.50;5058191;28;20220;-79
2022/07/14 10:33:08;;;;;;;1.55;1.33;;;;;;;32.13;28.40;98143.22;5055562;28;20321;-78
2022/07/14 10:36:03;;;;;;;3.25;1.25;;;;;;;32.10;27.22;98137.41;5058086;28;20234;-78
2022/07/14 10:38:42;;;;;;;1.30;1.20;;;;;;;32.07;27.33;98126.94;5056303;28;20212;-78
2022/07/14 10:41:25;;;;;;;4.05;1.60;;;;;;;32.08;26.69;98128.63;5058571;28;20625;-77
2022/07/14 10:44:05;;;;;;;5.10;1.30;;;;;;;32.26;26.65;98129.28;5057417;28;20220;-78
2022/07/14 10:46:37;;;;;;;1.83;1.55;;;;;;;32.22;26.48;98130.00;5059136;28;20235;-77
2022/07/14 10:49:07;;;;;;;4.38;1.50;;;;;;;32.19;26.60;98116.78;5055951;28;20803;-78
2022/07/14 10:51:34;;;;;;;2.22;1.50;;;;;;;32.27;26.81;98119.19;5057089;28;20212;-77
2022/07/14 10:54:08;;;;;;;1.90;1.30;;;;;;;32.48;26.70;98111.13;5056934;28;20220;-78
2022/07/14 10:56:36;;;;;;;3.00;1.40;;;;;;;32.68;27.18;98116.13;5060381;28;20218;-79
2022/07/14 10:59:35;;;;;;;2.45;1.40;;;;;;;32.96;26.35;98116.13;5057468;28;20220;-78
2022/07/14 11:02:37;;;;;;;3.10;1.52;;;;;;;33.08;26.69;98108.66;5056442;28;20239;-77
2022/07/14 11:05:14;;;;;;;5.05;1.50;;;;;;;33.14;26.38;98115.88;5049883;28;20242;-79
2022/07/14 11:07:47;;;;;;;2.33;1.33;;;;;;;33.17;26.27;98104.41;5056825;28;20243;-79
2022/07/14 11:11:08;;;;;;;2.75;1.63;;;;;;;33.18;26.29;98097.88;5059422;28;20219;-79
2022/07/14 11:14:03;;;;;;;2.65;1.52;;;;;;;33.02;27.12;98093.22;5054907;28;20738;-79
2022/07/14 11:17:02;;;;;;;2.67;1.70;;;;;;;33.01;26.61;98092.38;5053429;28;20736;-77
2022/07/14 11:19:32;;;;;;;2.42;1.63;;;;;;;33.02;26.60;98099.53;5056527;28;20274;-78
2022/07/14 11:22:18;;;;;;;6.80;1.70;;;;;;;32.88;27.11;98091.91;5058934;28;20267;-79
2022/07/14 11:24:53;;;;;;;5.07;1.50;;;;;;;32.93;27.47;98094.72;5049465;28;20263;-77
2022/07/14 11:27:33;;;;;;;5.65;1.63;;;;;;;33.01;27.88;98091.56;5056651;28;20212;-77
2022/07/14 11:30:27;;;;;;;2.28;1.42;;;;;;;33.04;28.39;98089.16;5059469;28;20301;-77
2022/07/14 11:32:59;;;;;;;5.95;1.90;;;;;;;33.08;27.39;98086.75;5056196;28;20220;-78
2022/07/14 11:38:40;;;;;;;5.20;1.60;;;;;;;32.98;28.30;98087.41;5037200;28;20234;-79
2022/07/14 11:41:09;;;;;;;4.00;1.75;;;;;;;33.07;29.04;98085.09;5056332;28;20219;-78
2022/07/14 11:43:41;;;;;;;2.90;1.65;;;;;;;33.11;28.34;98076.13;5056883;28;20303;-77
2022/07/14 11:46:10;;;;;;;4.45;1.80;;;;;;;33.08;28.37;98084.00;5056055;28;20330;-78
2022/07/14 11:48:39;;;;;;;3.47;1.80;;;;;;;32.95;28.66;98078.88;5055104;28;20705;-77
2022/07/14 11:51:08;;;;;;;4.00;1.67;;;;;;;32.93;28.93;98081.03;5055920;28;20208;-76
2022/07/14 11:53:36;;;;;;;1.92;1.40;;;;;;;32.94;28.72;98069.81;5059092;28;20294;-77